createdAt,value
2023-02-23T06:35:17.850Z,30.60
2023-02-23T06:38:21.130Z,34.67
2023-02-23T06:46:22.937Z,33.42
2023-02-23T06:49:25.507Z,32.25
2023-02-23T06:52:27.956Z,32.95
2023-02-23T06:55:30.542Z,33.33
2023-02-23T06:58:33.230Z,34.70
2023-02-23T07:01:37.048Z,36.17
2023-02-23T07:04:39.686Z,35.30
2023-02-23T07:07:42.181Z,28.27
2023-02-23T07:10:45.390Z,30.92
2023-02-23T07:13:47.849Z,38.25
2023-02-23T07:16:51.704Z,32.35
2023-02-23T07:19:54.185Z,30.77
2023-02-23T07:22:56.648Z,34.42
2023-02-23T07:26:00.911Z,33.50
2023-02-23T07:29:03.584Z,31.85
2023-02-23T07:32:07.574Z,31.15
2023-02-23T07:35:10.749Z,36.33
2023-02-23T07:38:13.615Z,33.35
2023-02-23T07:41:16.321Z,31.38
2023-02-23T07:44:18.842Z,29.13
2023-02-23T07:47:23.008Z,28.13
2023-02-23T07:50:25.484Z,30.88
2023-02-23T07:53:28.273Z,28.88
2023-02-23T07:56:30.702Z,28.15
2023-02-23T07:59:33.191Z,27.02
2023-02-23T08:02:37.022Z,33.75
2023-02-23T08:05:40.080Z,26.83
2023-02-23T08:08:42.592Z,33.67
2023-02-23T08:11:45.096Z,28.58
2023-02-23T08:14:47.580Z,28.15
2023-02-23T08:17:51.363Z,27.20
2023-02-23T08:20:59.057Z,32.67
2023-02-23T08:24:01.537Z,28.15
2023-02-23T08:27:04.334Z,29.17
2023-02-23T08:30:09.811Z,29.42
2023-02-23T08:33:13.611Z,27.38
2023-02-23T08:36:16.073Z,26.63
2023-02-23T08:39:18.906Z,27.77
2023-02-23T08:42:21.353Z,31.50
2023-02-23T08:45:23.819Z,26.90
2023-02-23T08:48:27.655Z,28.60
2023-02-23T08:51:30.118Z,34.65
2023-02-23T08:54:32.582Z,28.95
2023-02-23T08:57:35.520Z,23.15
2023-02-23T09:00:38.015Z,27.50
2023-02-23T09:03:41.825Z,27.90
2023-02-23T09:06:44.255Z,25.00
2023-02-23T09:09:46.710Z,32.92
2023-02-23T09:12:49.200Z,25.85
2023-02-23T09:15:51.662Z,28.35
2023-02-23T09:18:55.930Z,29.38
2023-02-23T09:21:58.371Z,27.25
2023-02-23T09:25:00.856Z,26.27
2023-02-23T09:28:03.355Z,28.85
2023-02-23T09:31:07.385Z,32.50
2023-02-23T09:34:12.649Z,30.05
2023-02-23T09:37:15.570Z,28.58
2023-02-23T09:40:21.888Z,27.10
2023-02-23T09:43:31.718Z,24.85
2023-02-23T09:46:43.953Z,25.33
2023-02-23T09:49:50.774Z,24.65
2023-02-23T09:52:58.329Z,27.45
2023-02-23T09:56:04.238Z,29.63
2023-02-23T09:59:10.011Z,28.95
2023-02-23T10:02:24.062Z,33.58
2023-02-23T10:05:31.781Z,31.90
2023-02-23T10:08:56.534Z,27.10
2023-02-23T10:12:07.216Z,26.85
2023-02-23T10:15:25.473Z,27.65
2023-02-23T10:18:46.578Z,28.50
2023-02-23T10:21:56.926Z,27.38
2023-02-23T10:25:06.385Z,27.15
2023-02-23T10:28:14.118Z,27.50
2023-02-23T10:31:38.312Z,28.00
2023-02-23T10:34:42.065Z,31.58
2023-02-23T10:37:46.719Z,25.20
2023-02-23T10:40:57.683Z,33.70
2023-02-23T10:44:10.936Z,26.77
2023-02-23T10:47:22.206Z,26.92
2023-02-23T10:50:27.566Z,25.35
2023-02-23T10:53:36.060Z,28.20
2023-02-23T10:56:45.154Z,28.92
2023-02-23T11:00:27.586Z,31.50
2023-02-23T11:03:34.459Z,26.77
2023-02-23T11:06:39.581Z,28.67
2023-02-23T11:09:47.403Z,30.50
2023-02-23T11:12:50.553Z,31.17
2023-02-23T11:16:01.997Z,26.25
2023-02-23T11:19:07.000Z,29.88
2023-02-23T11:22:23.364Z,26.58
2023-02-23T11:25:31.226Z,35.10
2023-02-23T11:28:36.943Z,27.40
2023-02-23T11:31:40.696Z,27.65
2023-02-23T11:34:44.875Z,31.00
2023-02-23T11:37:47.893Z,31.50
2023-02-23T11:41:01.506Z,36.72
2023-02-23T11:44:06.432Z,30.63
2023-02-23T11:47:17.322Z,35.78
2023-02-23T11:50:25.366Z,33.85
2023-02-23T11:53:32.748Z,33.75
2023-02-23T11:56:37.048Z,27.02
2023-02-23T11:59:42.046Z,30.85
2023-02-23T12:02:50.811Z,31.92
2023-02-23T12:05:57.644Z,28.90
2023-02-23T12:09:06.743Z,31.83
2023-02-23T12:12:15.763Z,27.05
2023-02-23T12:15:27.309Z,30.92
2023-02-23T12:18:39.717Z,32.25
2023-02-23T12:21:46.148Z,32.40
2023-02-23T12:24:53.552Z,29.98
2023-02-23T12:28:18.086Z,30.77
2023-02-23T12:31:27.097Z,28.33
2023-02-23T12:34:34.602Z,29.85
2023-02-23T12:37:42.122Z,32.78
2023-02-23T12:40:45.796Z,33.10
2023-02-23T12:43:54.901Z,30.40
2023-02-23T12:47:04.509Z,32.15
2023-02-23T12:50:13.563Z,32.90
2023-02-23T12:53:22.844Z,37.10
2023-02-23T12:56:41.474Z,31.58
2023-02-23T13:00:24.134Z,33.35
2023-02-23T13:03:38.846Z,31.42
2023-02-23T13:06:51.632Z,40.63
2023-02-23T13:10:06.469Z,32.90
2023-02-23T13:13:22.047Z,30.15
2023-02-23T13:16:31.928Z,30.30
2023-02-23T13:19:42.454Z,33.03
2023-02-23T13:22:50.810Z,31.83
2023-02-23T13:26:00.629Z,35.20
2023-02-23T13:29:08.121Z,35.03
2023-02-23T13:32:13.722Z,31.63
2023-02-23T13:35:19.088Z,28.17
2023-02-23T13:38:27.350Z,35.72
2023-02-23T13:41:38.688Z,30.25
2023-02-23T13:44:49.248Z,24.58
2023-02-23T13:47:58.147Z,27.73
2023-02-23T13:51:07.012Z,32.85
2023-02-23T13:54:24.757Z,33.42
2023-02-23T13:57:28.941Z,33.15
2023-02-23T14:00:32.579Z,36.03
2023-02-23T14:03:42.132Z,30.70
2023-02-23T14:06:56.454Z,33.15
2023-02-23T14:10:01.910Z,27.20
2023-02-23T14:13:07.827Z,35.08
2023-02-23T14:16:14.716Z,33.85
2023-02-23T14:19:41.852Z,34.70
2023-02-23T14:23:14.697Z,37.13
2023-02-23T14:26:36.496Z,37.58
2023-02-23T14:29:41.350Z,35.22
2023-02-23T14:32:45.805Z,35.50
2023-02-23T14:35:50.664Z,29.23
2023-02-23T14:39:01.262Z,29.30
2023-02-23T14:42:07.439Z,33.42
2023-02-23T14:45:19.986Z,34.53
2023-02-23T14:48:23.520Z,35.67
2023-02-23T14:51:42.303Z,36.30
2023-02-23T14:54:45.072Z,31.88
2023-02-23T14:57:47.614Z,35.90
2023-02-23T15:00:52.037Z,30.73
2023-02-23T15:04:06.930Z,41.92
2023-02-23T15:07:18.767Z,38.15
2023-02-23T15:13:29.960Z,41.97
2023-02-23T15:16:35.486Z,42.15
2023-02-23T15:19:39.315Z,53.97
2023-02-23T15:22:44.089Z,44.08
2023-02-23T15:25:50.967Z,46.17
2023-02-23T15:28:54.445Z,57.95
2023-02-23T15:31:58.099Z,57.40
2023-02-23T15:35:03.619Z,54.85
2023-02-23T15:38:24.719Z,55.13
2023-02-23T15:41:36.905Z,55.90
2023-02-23T15:44:44.869Z,57.17
2023-02-23T15:47:48.302Z,59.10
2023-02-23T15:50:53.832Z,55.95
2023-02-23T15:53:58.243Z,57.00
2023-02-23T15:57:05.298Z,55.88
2023-02-23T16:00:19.752Z,56.20
2023-02-23T16:03:31.643Z,60.45
2023-02-23T16:06:36.476Z,61.85
2023-02-23T16:09:49.774Z,62.17
2023-02-23T16:12:54.745Z,63.20
2023-02-23T16:15:57.970Z,58.38
